Time;durP1;ratioP1;P1;durP2;ratioP2;P2;SDS_P1;SDS_P2;PMS_P1;PMS_P2;Temp;Humidity;BMP_temperature;BMP_pressure;BME280_temperature;BME280_humidity;BME280_pressure;Samples;Min_cycle;Max_cycle;Signal;HPM_P1;HPM_P2
2022/03/05 00:01:03;;;;;;;78.30;28.60;;;;;;;-0.30;80.53;99088.17;108542;1271;22520;-76
2022/03/05 00:03:30;;;;;;;79.40;29.40;;;;;;;-0.33;80.68;99088.20;108420;1270;22680;-82
2022/03/05 00:05:57;;;;;;;79.90;30.80;;;;;;;-0.34;80.43;99085.30;108406;1271;22550;-83
2022/03/05 00:08:24;;;;;;;85.20;32.30;;;;;;;-0.34;80.10;99087.87;108394;1271;22540;-81
2022/03/05 00:10:51;;;;;;;71.90;28.60;;;;;;;-0.33;79.99;99086.50;108420;1271;22525;-81
2022/03/05 00:13:18;;;;;;;68.20;28.40;;;;;;;-0.30;79.89;99087.83;108360;1271;22606;-79
2022/03/05 00:15:46;;;;;;;56.90;26.00;;;;;;;-0.25;80.12;99092.38;108409;1271;22681;-82
2022/03/05 00:18:14;;;;;;;65.60;27.40;;;;;;;-0.25;80.56;99093.39;108351;1271;22689;-84
2022/03/05 00:20:44;;;;;;;61.60;27.40;;;;;;;-0.28;80.63;99091.23;108401;1271;22560;-78
2022/03/05 00:23:15;;;;;;;64.30;28.10;;;;;;;-0.27;80.58;99089.16;108380;1271;22592;-81
2022/03/05 00:25:42;;;;;;;78.80;33.50;;;;;;;-0.25;80.43;99090.31;108402;1271;22613;-83
2022/03/05 00:28:09;;;;;;;79.80;34.50;;;;;;;-0.23;80.33;99087.89;108395;1271;22593;-78
2022/03/05 00:30:37;;;;;;;92.20;35.90;;;;;;;-0.21;79.97;99087.70;108335;1271;22541;-85
2022/03/05 00:33:04;;;;;;;82.10;33.50;;;;;;;-0.17;79.78;99093.11;108406;1271;22541;-80
2022/03/05 00:35:32;;;;;;;95.60;37.60;;;;;;;-0.12;79.94;99093.39;108431;1271;22673;-84
2022/03/05 00:38:00;;;;;;;101.70;37.80;;;;;;;-0.10;80.15;99091.14;108339;1271;22544;-79
2022/03/05 00:40:27;;;;;;;113.90;44.10;;;;;;;-0.11;80.27;99090.46;108363;1271;22584;-84
2022/03/05 00:42:54;;;;;;;116.20;43.90;;;;;;;-0.11;80.28;99092.52;108357;1271;22690;-81
2022/03/05 00:45:21;;;;;;;101.80;39.00;;;;;;;-0.10;80.17;99095.08;108381;1271;22658;-76
2022/03/05 00:47:48;;;;;;;79.80;34.00;;;;;;;-0.11;79.98;99092.34;108364;1271;23045;-77
2022/03/05 00:50:15;;;;;;;78.20;32.70;;;;;;;-0.10;79.87;99090.45;108403;1271;22544;-79
2022/03/05 00:52:42;;;;;;;74.60;33.30;;;;;;;-0.05;79.68;99094.13;108456;1271;23006;-77
2022/03/05 00:55:09;;;;;;;110.40;44.10;;;;;;;-0.03;79.70;99089.48;108380;1271;22709;-78
2022/03/05 00:57:36;;;;;;;69.90;33.00;;;;;;;-0.04;80.11;99094.12;108462;1271;22528;-86
2022/03/05 01:00:06;;;;;;;67.30;31.10;;;;;;;-0.08;80.24;99095.18;108392;1271;22701;-82
2022/03/05 01:02:33;;;;;;;67.30;30.40;;;;;;;-0.09;80.10;99093.35;108547;1271;22534;-80
2022/03/05 01:05:00;;;;;;;65.50;29.80;;;;;;;-0.13;80.00;99088.09;108348;1271;26222;-78
2022/03/05 01:07:27;;;;;;;55.40;27.70;;;;;;;-0.14;79.75;99088.10;108410;1271;22526;-76
2022/03/05 01:09:54;;;;;;;59.10;28.10;;;;;;;-0.16;79.74;99087.95;108426;1271;24255;-74
2022/03/05 01:12:24;;;;;;;58.40;27.60;;;;;;;-0.13;79.76;99085.70;108417;1271;23042;-77
2022/03/05 01:14:52;;;;;;;58.70;28.80;;;;;;;-0.10;79.74;99080.52;108407;1271;22630;-75
2022/03/05 01:17:19;;;;;;;53.10;25.00;;;;;;;-0.07;80.11;99080.29;108447;1271;22718;-82
2022/03/05 01:19:46;;;;;;;51.00;24.70;;;;;;;-0.09;80.24;99082.05;108411;1271;22546;-77
2022/03/05 01:22:14;;;;;;;52.00;25.70;;;;;;;-0.11;80.30;99082.59;108375;1271;22535;-82
2022/03/05 01:24:41;;;;;;;50.20;24.60;;;;;;;-0.11;80.06;99082.42;108337;1271;22645;-80
2022/03/05 01:27:08;;;;;;;56.40;25.60;;;;;;;-0.13;79.87;99082.10;108403;1271;22520;-75
2022/03/05 01:29:35;;;;;;;60.80;27.80;;;;;;;-0.14;79.76;99082.11;108398;1271;22540;-76
2022/03/05 01:32:03;;;;;;;67.70;32.10;;;;;;;-0.11;79.54;99080.38;108374;1271;22570;-78
2022/03/05 01:34:30;;;;;;;69.70;32.80;;;;;;;-0.10;79.67;99077.27;108370;1271;22606;-78
2022/03/05 01:36:57;;;;;;;57.60;28.10;;;;;;;-0.09;80.05;99078.09;108381;1271;23732;-75
2022/03/05 01:39:24;;;;;;;61.60;32.20;;;;;;;-0.13;80.36;99080.55;108475;1271;22539;-77
2022/03/05 01:41:54;;;;;;;68.10;33.10;;;;;;;-0.15;80.24;99083.15;108352;1271;25344;-83
2022/03/05 01:44:24;;;;;;;64.70;32.10;;;;;;;-0.16;80.01;99075.81;108211;1271;242161;-78
2022/03/05 01:46:51;;;;;;;66.60;31.70;;;;;;;-0.19;79.89;99075.35;108339;1271;24389;-80
2022/03/05 01:49:19;;;;;;;60.00;28.40;;;;;;;-0.19;79.72;99076.20;108425;1271;22663;-82
2022/03/05 01:51:47;;;;;;;60.70;28.30;;;;;;;-0.16;79.65;99077.86;108451;1268;22544;-77
2022/03/05 01:54:15;;;;;;;58.50;30.00;;;;;;;-0.13;79.81;99081.07;108432;1271;22547;-82
2022/03/05 01:56:43;;;;;;;52.40;25.90;;;;;;;-0.13;80.24;99077.65;108396;1271;24433;-77
2022/03/05 01:59:10;;;;;;;57.10;28.90;;;;;;;-0.16;80.41;99084.19;108365;1271;24255;-85
2022/03/05 02:01:38;;;;;;;55.30;27.20;;;;;;;-0.18;80.34;99084.91;108379;1271;22689;-79
2022/03/05 02:04:05;;;;;;;56.50;29.80;;;;;;;-0.18;80.23;99084.73;108541;1271;22540;-81
2022/03/05 02:06:33;;;;;;;63.80;32.20;;;;;;;-0.18;80.09;99085.09;108459;1271;22581;-78
2022/03/05 02:09:00;;;;;;;73.30;36.00;;;;;;;-0.19;79.93;99081.34;108437;1271;22616;-81
2022/03/05 02:11:28;;;;;;;76.60;37.80;;;;;;;-0.15;79.84;99079.72;108412;1271;22548;-79
2022/03/05 02:13:55;;;;;;;63.20;32.20;;;;;;;-0.13;80.16;99075.08;108420;1271;22547;-79
2022/03/05 02:16:24;;;;;;;58.20;29.60;;;;;;;-0.12;80.41;99076.10;108515;1271;22524;-82
2022/03/05 02:18:55;;;;;;;65.60;32.30;;;;;;;-0.13;80.59;99077.65;108391;1271;22611;-76
2022/03/05 02:21:27;;;;;;;57.40;29.00;;;;;;;-0.14;80.64;99079.38;108356;1271;22682;-76
2022/03/05 02:23:55;;;;;;;68.80;35.30;;;;;;;-0.14;80.18;99079.55;108404;1271;22636;-78
2022/03/05 02:26:22;;;;;;;68.00;35.60;;;;;;;-0.15;80.15;99079.20;108413;1271;25372;-80
2022/03/05 02:28:50;;;;;;;74.40;37.60;;;;;;;-0.14;79.75;99077.31;108510;1271;25462;-82
2022/03/05 02:31:17;;;;;;;74.30;37.60;;;;;;;-0.10;79.69;99081.55;108403;1271;22512;-82
2022/03/05 02:33:45;;;;;;;72.10;37.50;;;;;;;-0.08;79.87;99082.36;108413;1270;22547;-80
2022/03/05 02:36:12;;;;;;;60.50;30.50;;;;;;;-0.07;80.20;99083.36;108737;1271;22678;-79
2022/03/05 02:38:39;;;;;;;66.90;32.20;;;;;;;-0.08;80.30;99084.75;108364;1271;22541;-83
2022/03/05 02:41:07;;;;;;;63.40;29.80;;;;;;;-0.09;80.29;99086.30;108431;1271;25666;-84
2022/03/05 02:43:34;;;;;;;60.90;28.60;;;;;;;-0.10;80.17;99085.66;108401;1271;22610;-76
2022/03/05 02:46:01;;;;;;;64.80;30.80;;;;;;;-0.12;80.23;99086.54;108406;1271;23504;-76
2022/03/05 02:48:28;;;;;;;68.00;30.70;;;;;;;-0.11;80.00;99087.55;108394;1271;23008;-83
2022/03/05 02:50:55;;;;;;;66.30;30.10;;;;;;;-0.06;79.81;99085.41;108353;1271;22540;-81
2022/03/05 02:53:22;;;;;;;55.70;29.80;;;;;;;-0.04;79.92;99087.27;108409;1271;22681;-77
2022/03/05 02:55:49;;;;;;;56.40;27.70;;;;;;;-0.04;80.39;99085.05;108404;1271;22526;-84
2022/03/05 02:58:16;;;;;;;58.80;28.70;;;;;;;-0.07;80.30;99086.63;108387;1271;22557;-84
2022/03/05 03:00:43;;;;;;;55.40;29.00;;;;;;;-0.08;80.13;99084.92;108368;1271;22602;-80
2022/03/05 03:03:11;;;;;;;60.00;28.70;;;;;;;-0.11;80.27;99091.15;108408;1271;22555;-76
2022/03/05 03:05:38;;;;;;;53.70;28.30;;;;;;;-0.12;80.08;99084.32;108437;1271;22576;-74
2022/03/05 03:08:05;;;;;;;55.20;27.40;;;;;;;-0.13;79.85;99084.48;108424;1271;22658;-78
2022/03/05 03:10:32;;;;;;;61.30;29.40;;;;;;;-0.10;79.84;99083.25;108416;1271;23135;-80
2022/03/05 03:13:00;;;;;;;59.60;29.30;;;;;;;-0.07;79.91;99084.73;108358;1271;22555;-78
2022/03/05 03:15:27;;;;;;;58.00;26.70;;;;;;;-0.05;80.19;99080.77;108729;1270;22519;-80
2022/03/05 03:17:55;;;;;;;61.20;28.60;;;;;;;-0.06;80.59;99080.27;108374;1271;22561;-76
2022/03/05 03:20:24;;;;;;;54.90;29.90;;;;;;;-0.06;80.45;99080.96;108414;1271;26003;-80
2022/03/05 03:22:52;;;;;;;61.40;31.40;;;;;;;-0.05;80.23;99083.17;108409;1271;24206;-77
2022/03/05 03:25:20;;;;;;;65.80;31.00;;;;;;;-0.06;79.95;99082.84;108771;1271;22670;-78
2022/03/05 03:27:48;;;;;;;67.00;31.80;;;;;;;-0.08;79.80;99080.64;108413;1271;23121;-82
2022/03/05 03:30:16;;;;;;;59.40;29.40;;;;;;;-0.08;79.92;99083.55;108431;1271;23274;-76
2022/03/05 03:32:44;;;;;;;57.20;29.30;;;;;;;-0.06;80.32;99081.47;108476;1271;22541;-84
2022/03/05 03:35:13;;;;;;;45.00;24.70;;;;;;;-0.08;80.49;99085.61;108369;1271;22690;-78
2022/03/05 03:37:41;;;;;;;55.80;25.00;;;;;;;-0.11;80.54;99086.19;108401;1271;22665;-78
2022/03/05 03:40:11;;;;;;;47.50;24.60;;;;;;;-0.14;80.44;99087.77;108371;1271;23197;-79
2022/03/05 03:42:38;;;;;;;56.90;24.70;;;;;;;-0.16;80.36;99093.09;108421;1271;22602;-80
2022/03/05 03:45:06;;;;;;;51.10;23.70;;;;;;;-0.18;80.09;99091.25;108408;1271;22541;-80
2022/03/05 03:47:34;;;;;;;47.20;22.40;;;;;;;-0.18;79.85;99090.05;108387;1271;22725;-73
2022/03/05 03:50:03;;;;;;;48.00;22.00;;;;;;;-0.15;79.80;99094.96;108408;1271;22676;-74
2022/03/05 03:52:30;;;;;;;48.70;23.70;;;;;;;-0.12;79.89;99095.10;108414;1271;22697;-74
2022/03/05 03:54:57;;;;;;;41.30;22.10;;;;;;;-0.11;80.37;99095.42;108394;1271;22577;-74
2022/03/05 03:57:24;;;;;;;41.90;21.80;;;;;;;-0.13;80.67;99092.03;108382;1271;22628;-74
2022/03/05 03:59:52;;;;;;;44.10;20.90;;;;;;;-0.14;80.53;99090.15;108353;1271;24223;-73
2022/03/05 04:02:20;;;;;;;43.40;21.70;;;;;;;-0.15;80.13;99089.83;108392;1270;22626;-74
2022/03/05 04:04:48;;;;;;;46.90;24.70;;;;;;;-0.17;80.12;99094.48;108639;1271;22519;-75
2022/03/05 04:10:06;;;;;;;55.40;24.90;;;;;;;-0.12;79.71;99089.61;108572;1271;22537;-80
2022/03/05 04:12:33;;;;;;;51.60;23.90;;;;;;;-0.08;79.81;99089.04;108600;1271;25675;-77
2022/03/05 04:15:00;;;;;;;67.00;26.10;;;;;;;-0.09;80.11;99089.05;108580;1271;22541;-76
2022/03/05 04:17:27;;;;;;;63.60;25.70;;;;;;;-0.11;80.17;99090.80;108620;1271;22616;-80
2022/03/05 04:19:55;;;;;;;58.40;26.60;;;;;;;-0.13;80.03;99092.54;108593;1271;22655;-78
2022/03/05 04:22:22;;;;;;;58.00;26.10;;;;;;;-0.14;79.61;99089.31;108681;1271;22541;-84
2022/03/05 04:24:49;;;;;;;50.70;23.70;;;;;;;-0.18;79.65;99093.13;108709;1271;22607;-85
2022/03/05 04:27:16;;;;;;;47.50;23.50;;;;;;;-0.21;79.41;99095.92;108643;1271;22534;-78
2022/03/05 04:29:43;;;;;;;48.00;23.80;;;;;;;-0.25;79.40;99094.93;108593;1271;22562;-80
2022/03/05 04:32:11;;;;;;;56.70;27.30;;;;;;;-0.22;79.10;99099.69;108673;1271;22544;-80
2022/03/05 04:34:38;;;;;;;50.20;24.00;;;;;;;-0.21;79.37;99101.40;108616;1271;22719;-75
2022/03/05 04:37:05;;;;;;;41.40;21.80;;;;;;;-0.22;79.72;99105.34;108676;1271;22789;-78
2022/03/05 04:39:32;;;;;;;40.00;21.00;;;;;;;-0.26;79.92;99109.16;108445;1271;22562;-75
2022/03/05 04:41:59;;;;;;;41.10;22.80;;;;;;;-0.32;79.83;99108.55;108366;1271;22549;-79
2022/03/05 04:44:26;;;;;;;44.30;23.60;;;;;;;-0.36;79.58;99109.64;108430;1271;23678;-76
2022/03/05 04:46:53;;;;;;;40.00;22.50;;;;;;;-0.40;79.36;99111.76;108417;1271;22541;-80
2022/03/05 04:49:21;;;;;;;43.10;20.40;;;;;;;-0.44;79.26;99116.92;108399;1271;22548;-81
2022/03/05 04:51:48;;;;;;;35.90;20.30;;;;;;;-0.44;79.50;99120.19;108374;1271;24232;-78
2022/03/05 04:54:15;;;;;;;35.30;19.20;;;;;;;-0.45;79.66;99116.44;108380;1271;22543;-77
2022/03/05 04:56:43;;;;;;;29.00;15.90;;;;;;;-0.44;80.14;99114.37;108421;1271;24306;-80
2022/03/05 04:59:10;;;;;;;33.70;17.20;;;;;;;-0.48;80.21;99115.30;108556;1271;22530;-80
2022/03/05 05:01:37;;;;;;;34.00;16.80;;;;;;;-0.52;79.99;99118.06;108468;1271;22551;-77
2022/03/05 05:04:05;;;;;;;29.90;16.40;;;;;;;-0.56;79.76;99117.63;108425;1271;22766;-79
2022/03/05 05:06:32;;;;;;;32.50;16.70;;;;;;;-0.59;79.60;99120.38;108412;1271;22534;-79
2022/03/05 05:08:59;;;;;;;35.30;17.20;;;;;;;-0.62;79.46;99119.40;108441;1271;24237;-78
2022/03/05 05:11:26;;;;;;;34.80;18.40;;;;;;;-0.61;79.38;99119.71;108414;1271;22678;-78
2022/03/05 05:13:53;;;;;;;37.50;17.60;;;;;;;-0.60;79.50;99123.48;108432;1271;22535;-80
2022/03/05 05:16:20;;;;;;;35.10;17.60;;;;;;;-0.60;80.17;99121.08;108363;1271;22678;-79
2022/03/05 05:21:33;;;;;;;39.40;20.40;;;;;;;-0.68;80.02;99126.83;108358;1271;22676;-79
2022/03/05 05:24:00;;;;;;;40.20;21.90;;;;;;;-0.72;79.85;99128.42;108374;1271;22552;-81
2022/03/05 05:26:27;;;;;;;45.50;23.00;;;;;;;-0.74;79.59;99128.46;108379;1271;22557;-80
2022/03/05 05:28:54;;;;;;;51.10;26.30;;;;;;;-0.75;79.33;99130.69;108377;1271;24769;-78
2022/03/05 05:31:21;;;;;;;49.00;25.30;;;;;;;-0.73;79.48;99133.73;108341;1271;22702;-75
2022/03/05 05:33:50;;;;;;;45.70;23.30;;;;;;;-0.71;79.98;99138.15;108398;1271;26568;-73
2022/03/05 05:36:17;;;;;;;45.60;22.20;;;;;;;-0.75;80.30;99138.21;108367;1271;22525;-78
2022/03/05 05:38:44;;;;;;;46.40;21.40;;;;;;;-0.79;80.36;99144.05;108358;1271;22562;-74
2022/03/05 05:41:12;;;;;;;43.30;21.00;;;;;;;-0.81;80.28;99145.98;108377;1271;22546;-75
2022/03/05 05:43:39;;;;;;;37.50;20.20;;;;;;;-0.82;79.95;99143.94;108383;1271;22550;-78
2022/03/05 05:46:06;;;;;;;54.80;27.70;;;;;;;-0.86;79.64;99149.27;108353;1271;22645;-74
2022/03/05 05:48:33;;;;;;;65.90;31.20;;;;;;;-0.88;79.59;99150.14;108339;1271;22557;-78
2022/03/05 05:51:00;;;;;;;60.00;26.90;;;;;;;-0.85;79.60;99148.06;108353;1271;22549;-74
2022/03/05 05:53:27;;;;;;;52.10;23.80;;;;;;;-0.81;79.73;99148.88;108352;1271;22662;-74
2022/03/05 05:55:54;;;;;;;55.60;31.20;;;;;;;-0.80;80.09;99146.80;108398;1271;22687;-74
2022/03/05 05:58:22;;;;;;;65.60;31.20;;;;;;;-0.80;80.10;99150.40;108386;1271;22481;-74
2022/03/05 06:00:49;;;;;;;72.30;32.70;;;;;;;-0.79;79.97;99152.95;108378;1271;22524;-75
2022/03/05 06:03:17;;;;;;;55.70;26.70;;;;;;;-0.81;79.91;99154.00;108386;1271;22735;-80
2022/03/05 06:05:44;;;;;;;48.90;26.80;;;;;;;-0.82;79.60;99156.26;108363;1271;25372;-81
2022/03/05 06:08:10;;;;;;;63.40;30.60;;;;;;;-0.84;79.30;99157.64;108367;1271;23453;-83
2022/03/05 06:10:38;;;;;;;88.00;44.80;;;;;;;-0.85;79.20;99152.68;108363;1271;22546;-81
2022/03/05 06:13:05;;;;;;;106.00;55.20;;;;;;;-0.81;79.24;99155.04;108371;1271;22671;-75
2022/03/05 06:15:32;;;;;;;62.70;33.60;;;;;;;-0.77;79.56;99156.86;108356;1271;22685;-76
2022/03/05 06:17:58;;;;;;;66.20;34.80;;;;;;;-0.71;79.94;99155.77;108371;1271;22604;-74
2022/03/05 06:20:25;;;;;;;49.20;25.80;;;;;;;-0.68;80.03;99155.20;108365;1271;22546;-75
2022/03/05 06:22:53;;;;;;;50.50;27.80;;;;;;;-0.64;79.98;99163.41;108327;1271;22600;-76
2022/03/05 06:25:20;;;;;;;61.00;35.50;;;;;;;-0.64;79.75;99167.50;108342;1271;23445;-75
2022/03/05 06:27:47;;;;;;;49.10;29.20;;;;;;;-0.63;79.47;99170.74;108354;1271;22556;-76
2022/03/05 06:30:14;;;;;;;42.60;22.40;;;;;;;-0.63;79.25;99168.17;108350;1271;25663;-74
2022/03/05 06:32:41;;;;;;;39.60;21.30;;;;;;;-0.64;79.04;99172.63;108375;1271;22534;-79
2022/03/05 06:35:09;;;;;;;37.10;21.70;;;;;;;-0.65;78.91;99175.89;108385;1271;22608;-81
2022/03/05 06:37:36;;;;;;;44.90;24.80;;;;;;;-0.58;79.02;99179.05;108349;1271;22564;-80
2022/03/05 06:40:05;;;;;;;34.30;18.10;;;;;;;-0.49;79.28;99181.17;108387;1271;22525;-76
2022/03/05 06:42:32;;;;;;;31.70;16.90;;;;;;;-0.43;79.66;99181.94;108504;1271;22616;-74
2022/03/05 06:44:59;;;;;;;42.30;21.80;;;;;;;-0.40;79.64;99178.32;108378;1271;22560;-74
2022/03/05 06:47:26;;;;;;;56.30;24.80;;;;;;;-0.35;79.41;99183.56;108339;1271;22707;-80
2022/03/05 06:49:54;;;;;;;49.70;23.20;;;;;;;-0.32;79.01;99184.89;108358;1271;22768;-76
2022/03/05 06:52:21;;;;;;;48.30;24.10;;;;;;;-0.33;78.79;99188.83;108358;1271;22558;-79
2022/03/05 06:54:49;;;;;;;36.90;19.20;;;;;;;-0.28;78.54;99190.32;108350;1271;22525;-74
2022/03/05 06:57:16;;;;;;;36.60;17.30;;;;;;;-0.33;78.20;99191.92;108380;1271;22542;-76
2022/03/05 06:59:43;;;;;;;37.10;18.20;;;;;;;-0.32;78.08;99186.78;108409;1271;25277;-78
2022/03/05 07:02:10;;;;;;;40.00;19.90;;;;;;;-0.30;78.29;99194.11;108433;1271;23278;-76
2022/03/05 07:04:38;;;;;;;38.00;18.10;;;;;;;-0.25;78.79;99189.41;108474;1271;22554;-75
2022/03/05 07:07:05;;;;;;;55.90;22.90;;;;;;;-0.20;79.00;99191.08;108430;1271;22548;-79
2022/03/05 07:09:32;;;;;;;51.00;25.90;;;;;;;-0.20;78.77;99191.09;108433;1271;23276;-71
2022/03/05 07:12:00;;;;;;;39.10;21.30;;;;;;;-0.16;78.31;99189.99;108374;1271;22630;-75
2022/03/05 07:14:27;;;;;;;37.60;19.50;;;;;;;-0.13;77.96;99192.70;108430;1271;22656;-73
2022/03/05 07:16:54;;;;;;;38.70;19.60;;;;;;;-0.08;77.55;99196.06;108402;1271;22553;-80
2022/03/05 07:19:22;;;;;;;37.10;19.70;;;;;;;-0.06;77.48;99193.63;108405;1271;25292;-73
2022/03/05 07:21:49;;;;;;;40.00;20.20;;;;;;;-0.03;77.23;99192.90;108399;1271;23002;-77
2022/03/05 07:24:16;;;;;;;38.80;19.80;;;;;;;0.03;77.14;99189.73;108384;1271;22679;-75
2022/03/05 07:26:43;;;;;;;41.20;19.60;;;;;;;0.11;76.74;99192.86;108392;1271;22983;-75
2022/03/05 07:29:10;;;;;;;36.70;16.40;;;;;;;0.21;76.98;99193.25;108401;1271;24720;-80
2022/03/05 07:31:38;;;;;;;39.40;19.60;;;;;;;0.39;77.14;99197.42;108392;1271;22582;-74
2022/03/05 07:34:05;;;;;;;37.70;19.60;;;;;;;0.50;77.37;99199.64;108349;1271;25360;-75
2022/03/05 07:36:32;;;;;;;34.30;16.40;;;;;;;0.62;77.10;99200.66;108352;1271;22547;-76
2022/03/05 07:38:59;;;;;;;36.30;18.20;;;;;;;0.70;76.11;99199.50;108331;1271;25499;-75
2022/03/05 07:41:26;;;;;;;35.00;18.80;;;;;;;0.75;75.69;99199.94;108363;1271;22737;-75
2022/03/05 07:43:53;;;;;;;52.00;26.40;;;;;;;0.79;75.57;99200.21;108374;1271;22585;-75
2022/03/05 07:46:20;;;;;;;33.10;18.30;;;;;;;0.88;74.86;99200.91;108334;1271;22652;-78
2022/03/05 07:48:48;;;;;;;34.50;19.20;;;;;;;0.96;74.30;99199.06;108376;1271;22540;-75
2022/03/05 07:51:15;;;;;;;29.90;17.10;;;;;;;0.98;74.49;99200.40;108344;1271;25304;-75
2022/03/05 07:53:42;;;;;;;35.10;15.90;;;;;;;1.04;74.44;99199.27;108387;1271;22616;-75
2022/03/05 07:56:10;;;;;;;28.80;15.90;;;;;;;0.98;73.56;99202.80;108346;1271;22548;-75
2022/03/05 07:58:37;;;;;;;33.40;17.30;;;;;;;1.00;73.74;99208.59;108399;1271;25672;-74
2022/03/05 08:01:04;;;;;;;32.70;17.80;;;;;;;1.02;72.94;99209.41;108374;1271;22545;-77
2022/03/05 08:03:31;;;;;;;43.10;21.70;;;;;;;1.03;73.48;99205.80;108344;1271;25400;-78
2022/03/05 08:05:58;;;;;;;31.50;16.60;;;;;;;1.07;73.01;99210.86;108342;1271;22602;-75
2022/03/05 08:08:25;;;;;;;34.60;18.10;;;;;;;1.08;72.46;99205.70;108371;1271;25512;-74
2022/03/05 08:10:52;;;;;;;28.20;16.00;;;;;;;1.14;72.72;99210.75;108346;1271;22521;-78
2022/03/05 08:13:19;;;;;;;37.20;21.20;;;;;;;1.19;72.45;99213.73;108354;1271;22558;-78
2022/03/05 08:15:46;;;;;;;32.30;18.00;;;;;;;1.24;72.00;99216.58;108330;1271;22626;-78
2022/03/05 08:18:13;;;;;;;37.30;20.00;;;;;;;1.25;71.16;99216.89;108371;1271;22543;-75
2022/03/05 08:20:40;;;;;;;66.60;34.90;;;;;;;1.31;71.79;99214.54;108372;1271;25612;-78
2022/03/05 08:23:07;;;;;;;73.50;37.50;;;;;;;1.43;72.04;99217.07;108403;1271;25708;-75
2022/03/05 08:25:34;;;;;;;80.10;50.20;;;;;;;1.53;71.74;99218.25;108343;1271;25340;-77
2022/03/05 08:28:01;;;;;;;41.40;24.90;;;;;;;1.63;71.46;99219.27;108342;1271;23099;-81
2022/03/05 08:30:28;;;;;;;52.30;22.40;;;;;;;1.66;71.18;99220.57;108407;1271;22527;-77
2022/03/05 08:32:55;;;;;;;34.10;18.80;;;;;;;1.70;71.14;99228.05;108366;1271;22646;-75
2022/03/05 08:35:22;;;;;;;38.30;21.80;;;;;;;1.72;70.70;99225.41;108386;1271;22534;-76
2022/03/05 08:37:50;;;;;;;38.50;20.40;;;;;;;1.77;70.72;99228.08;108360;1271;23069;-75
2022/03/05 08:40:19;;;;;;;29.00;15.50;;;;;;;1.83;70.11;99225.71;108377;1271;22552;-74
2022/03/05 08:42:50;;;;;;;41.70;21.60;;;;;;;1.88;69.58;99228.86;108482;1271;22635;-75
2022/03/05 08:45:17;;;;;;;34.00;19.40;;;;;;;1.99;69.24;99224.36;108368;1271;22633;-79
2022/03/05 08:47:44;;;;;;;29.20;16.90;;;;;;;1.97;68.97;99225.61;108342;1271;22530;-79
2022/03/05 08:50:11;;;;;;;40.70;21.30;;;;;;;1.93;69.36;99229.64;108366;1271;24247;-77
2022/03/05 08:52:39;;;;;;;38.50;21.10;;;;;;;1.93;68.89;99230.30;108385;1271;25926;-82
2022/03/05 08:55:09;;;;;;;38.10;17.70;;;;;;;1.94;69.16;99230.30;108384;1271;22706;-76
2022/03/05 08:57:36;;;;;;;43.50;24.20;;;;;;;2.03;67.96;99226.48;108349;1271;22554;-78
2022/03/05 09:00:06;;;;;;;40.80;21.20;;;;;;;2.08;68.39;99228.44;108367;1271;24501;-76
2022/03/05 09:02:33;;;;;;;38.90;19.10;;;;;;;2.14;68.14;99229.16;108664;1269;22647;-78
2022/03/05 09:05:00;;;;;;;48.00;26.30;;;;;;;2.18;68.00;99230.13;108387;1271;22600;-77
2022/03/05 09:07:27;;;;;;;50.70;26.20;;;;;;;2.20;68.07;99228.70;108398;1271;23176;-74
2022/03/05 09:09:55;;;;;;;36.70;18.80;;;;;;;2.33;67.43;99227.56;108374;1271;22527;-75
2022/03/05 09:12:22;;;;;;;34.00;18.00;;;;;;;2.33;66.11;99231.67;108356;1271;24287;-71
2022/03/05 09:14:49;;;;;;;40.10;20.40;;;;;;;2.26;66.36;99233.89;108343;1271;22702;-76
2022/03/05 09:17:16;;;;;;;40.90;20.90;;;;;;;2.31;66.52;99230.16;108379;1271;22840;-75
2022/03/05 09:19:43;;;;;;;40.30;18.70;;;;;;;2.38;66.18;99233.97;108351;1271;22543;-75
2022/03/05 09:22:10;;;;;;;73.50;27.90;;;;;;;2.41;66.11;99232.87;108373;1271;22526;-76
2022/03/05 09:24:37;;;;;;;46.10;21.00;;;;;;;2.44;66.48;99231.58;108348;1270;22554;-74
2022/03/05 09:27:06;;;;;;;46.90;19.70;;;;;;;2.54;65.32;99232.55;108364;1271;22520;-82
2022/03/05 09:29:33;;;;;;;39.20;17.30;;;;;;;2.63;65.77;99230.45;108581;1270;22551;-80
2022/03/05 09:32:00;;;;;;;50.50;21.00;;;;;;;2.72;64.94;99230.08;108428;1271;22544;-79
2022/03/05 09:34:27;;;;;;;43.00;21.00;;;;;;;2.71;64.75;99228.90;108376;1271;22522;-76
2022/03/05 09:36:54;;;;;;;39.60;18.80;;;;;;;2.76;64.99;99223.95;108355;1271;24285;-76
2022/03/05 09:39:21;;;;;;;29.10;16.50;;;;;;;2.80;65.21;99222.30;108344;1271;22541;-77
2022/03/05 09:41:48;;;;;;;38.30;18.50;;;;;;;2.90;64.85;99223.94;108327;1271;23822;-84
2022/03/05 09:44:16;;;;;;;41.90;22.70;;;;;;;2.94;64.51;99223.68;108383;1271;22525;-75
2022/03/05 09:46:44;;;;;;;39.40;21.10;;;;;;;2.92;63.24;99221.85;108373;1271;22544;-81
2022/03/05 09:49:11;;;;;;;40.50;22.20;;;;;;;2.92;63.92;99221.85;108400;1271;22596;-76
2022/03/05 09:51:38;;;;;;;26.00;13.90;;;;;;;2.98;64.07;99223.75;108341;1271;22606;-80
2022/03/05 09:54:05;;;;;;;31.10;16.40;;;;;;;3.04;63.38;99224.82;108367;1271;22547;-81
2022/03/05 09:56:32;;;;;;;34.90;21.80;;;;;;;3.15;64.20;99218.33;108384;1271;22524;-76
2022/03/05 09:58:59;;;;;;;34.20;16.80;;;;;;;3.22;63.44;99220.02;108348;1271;22572;-83
2022/03/05 10:01:26;;;;;;;31.30;17.40;;;;;;;3.25;62.54;99223.74;108371;1270;22555;-78
2022/03/05 10:03:58;;;;;;;28.60;15.40;;;;;;;3.23;62.31;99223.10;108350;1271;22524;-81
2022/03/05 10:06:28;;;;;;;30.60;17.60;;;;;;;3.22;62.49;99224.67;108667;1271;25371;-73
2022/03/05 10:08:57;;;;;;;62.60;36.70;;;;;;;3.28;62.20;99226.25;108537;1271;22543;-75
2022/03/05 10:11:37;;;;;;;52.20;30.60;;;;;;;3.31;61.67;99223.23;108575;1271;22544;-83
2022/03/05 10:14:17;;;;;;;34.40;20.00;;;;;;;3.35;61.68;99226.76;108536;1271;22608;-83
2022/03/05 10:16:44;;;;;;;24.80;14.20;;;;;;;3.35;60.53;99224.67;108623;1271;22528;-81
2022/03/05 10:19:23;;;;;;;33.20;18.10;;;;;;;3.31;60.03;99229.95;108579;1271;22532;-80
2022/03/05 10:22:05;;;;;;;20.90;11.50;;;;;;;3.28;60.58;99226.09;108596;1271;22522;-82
2022/03/05 10:24:35;;;;;;;18.40;10.60;;;;;;;3.34;61.38;99227.97;108621;1271;22483;-82
2022/03/05 10:27:04;;;;;;;23.30;12.40;;;;;;;3.45;61.32;99229.42;108610;1271;22541;-81
2022/03/05 10:29:35;;;;;;;19.60;10.80;;;;;;;3.56;60.46;99228.25;108622;1271;22555;-82
2022/03/05 10:32:03;;;;;;;35.80;19.80;;;;;;;3.62;59.15;99228.77;108596;1271;22525;-83
2022/03/05 10:34:51;;;;;;;25.50;15.00;;;;;;;3.68;59.16;99226.70;108606;1271;23872;-82
2022/03/05 10:37:19;;;;;;;23.50;13.60;;;;;;;3.70;58.28;99230.61;108548;1271;25908;-81
2022/03/05 10:39:48;;;;;;;22.60;13.10;;;;;;;3.71;58.88;99239.39;108578;1271;22641;-81
2022/03/05 10:42:20;;;;;;;24.70;12.90;;;;;;;3.62;58.86;99237.21;108598;1271;25237;-80
2022/03/05 10:45:00;;;;;;;20.60;11.50;;;;;;;3.59;58.93;99234.73;108523;1271;22553;-79
2022/03/05 10:47:40;;;;;;;25.50;12.90;;;;;;;3.60;58.15;99236.75;108561;1271;22525;-80
2022/03/05 10:50:21;;;;;;;20.10;10.10;;;;;;;3.57;57.74;99238.56;108598;1271;22525;-79
2022/03/05 10:52:49;;;;;;;18.30;9.70;;;;;;;3.53;57.74;99239.54;108632;1270;22534;-81
2022/03/05 10:55:18;;;;;;;20.70;10.40;;;;;;;3.50;58.52;99236.69;108571;1271;22537;-75
2022/03/05 10:58:13;;;;;;;137.30;59.90;;;;;;;3.42;57.58;99236.22;108614;1270;22687;-79
2022/03/05 11:00:42;;;;;;;41.90;23.60;;;;;;;3.30;56.65;99233.59;108360;1271;22525;-83
2022/03/05 11:03:09;;;;;;;54.00;33.00;;;;;;;3.04;55.32;99237.73;108514;1271;22565;-77
2022/03/05 11:05:38;;;;;;;44.60;25.10;;;;;;;2.76;55.74;99240.83;108423;1271;25411;-73
2022/03/05 11:08:06;;;;;;;36.00;18.30;;;;;;;2.52;57.05;99244.83;108409;1271;22538;-72
2022/03/05 11:10:33;;;;;;;39.00;20.20;;;;;;;2.34;58.32;99242.66;108599;1271;22544;-84
2022/03/05 11:13:03;;;;;;;41.50;23.80;;;;;;;2.12;59.44;99252.59;108622;1271;22548;-77
2022/03/05 11:15:31;;;;;;;30.50;17.90;;;;;;;1.98;59.87;99250.31;108626;1271;22630;-83
2022/03/05 11:17:58;;;;;;;22.50;13.00;;;;;;;1.79;60.38;99253.95;108646;1270;22541;-74
2022/03/05 11:20:26;;;;;;;19.40;11.40;;;;;;;1.60;60.88;99249.34;108656;1271;22598;-85